Time;durP1;ratioP1;P1;durP2;ratioP2;P2;SDS_P1;SDS_P2;PMS_P1;PMS_P2;Temp;Humidity;BMP_temperature;BMP_pressure;BME280_temperature;BME280_humidity;BME280_pressure;Samples;Min_cycle;Max_cycle;Signal;HPM_P1;HPM_P2
2023/02/02 00:04:39;;;;;;;2.50;1.13;;;15.40;67.80;;;;;;10426830;28;20024;-55
2023/02/02 00:09:39;;;;;;;3.22;1.15;;;15.30;67.80;;;;;;10444103;28;20484;-56
2023/02/02 00:14:40;;;;;;;3.95;1.35;;;15.30;67.70;;;;;;10405806;28;20103;-56
2023/02/02 00:19:41;;;;;;;3.60;1.40;;;15.30;67.80;;;;;;10404978;28;20100;-55
2023/02/02 00:24:41;;;;;;;3.00;1.67;;;15.30;67.70;;;;;;10427405;28;20079;-56
2023/02/02 00:29:42;;;;;;;2.30;1.30;;;15.30;67.80;;;;;;10431536;28;20041;-56
2023/02/02 00:34:43;;;;;;;1.70;1.00;;;15.30;67.80;;;;;;10443072;28;20075;-55
2023/02/02 00:39:43;;;;;;;2.47;1.48;;;15.30;67.80;;;;;;10444710;28;20063;-55
2023/02/02 00:50:04;;;;;;;3.57;1.40;;;15.20;67.70;;;;;;10431797;28;20560;-56
2023/02/02 00:55:05;;;;;;;2.00;1.33;;;15.20;67.70;;;;;;10421235;28;20017;-56
2023/02/02 01:00:10;;;;;;;2.55;1.20;;;15.20;67.70;;;;;;10428561;28;20105;-55
2023/02/02 01:05:12;;;;;;;2.85;1.25;;;15.20;67.70;;;;;;10409652;28;20108;-55
2023/02/02 01:10:17;;;;;;;5.15;1.40;;;15.20;67.70;;;;;;10424726;28;20034;-55
2023/02/02 01:15:18;;;;;;;2.13;0.90;;;15.20;67.70;;;;;;10424285;28;20406;-56
2023/02/02 01:20:20;;;;;;;4.72;1.23;;;15.20;67.70;;;;;;10443458;28;20163;-56
2023/02/02 01:25:20;;;;;;;3.17;1.20;;;15.20;67.70;;;;;;10438020;28;20630;-55
2023/02/02 01:30:21;;;;;;;3.25;1.35;;;15.10;67.70;;;;;;10453354;28;20881;-57
2023/02/02 01:35:21;;;;;;;2.75;1.13;;;15.10;67.70;;;;;;10433781;28;20424;-56
2023/02/02 01:40:22;;;;;;;3.17;1.13;;;15.10;67.70;;;;;;10425101;28;20100;-55
2023/02/02 01:45:28;;;;;;;2.58;1.13;;;15.10;67.70;;;;;;10411604;28;20045;-56
2023/02/02 01:50:33;;;;;;;4.28;1.77;;;15.10;67.60;;;;;;10420101;28;20040;-55
2023/02/02 01:55:37;;;;;;;2.22;0.90;;;15.10;67.60;;;;;;10419988;28;20018;-55
2023/02/02 02:00:40;;;;;;;3.92;1.70;;;15.10;67.60;;;;;;10409540;28;20051;-56
2023/02/02 02:05:58;;;;;;;1.90;0.80;;;15.00;67.60;;;;;;10446601;28;20050;-56
2023/02/02 02:10:59;;;;;;;3.40;1.10;;;15.00;67.60;;;;;;10450486;28;20028;-55
2023/02/02 02:16:23;;;;;;;2.55;1.35;;;15.00;67.60;;;;;;10450216;28;20117;-57
2023/02/02 02:27:13;;;;;;;2.70;1.00;;;15.00;67.60;;;;;;10410097;28;20501;-56
2023/02/02 02:32:37;;;;;;;3.58;1.30;;;15.00;67.60;;;;;;10408695;28;20017;-56
2023/02/02 02:37:48;;;;;;;2.75;0.90;;;15.00;67.60;;;;;;10425191;28;20489;-56
2023/02/02 02:42:55;;;;;;;2.42;0.93;;;15.00;67.60;;;;;;10421756;28;20029;-56
2023/02/02 02:47:56;;;;;;;2.08;0.90;;;15.00;67.60;;;;;;10417955;28;20037;-56
2023/02/02 02:53:06;;;;;;;2.45;0.85;;;15.00;67.60;;;;;;10437982;28;20473;-56
2023/02/02 02:58:19;;;;;;;2.25;1.10;;;14.90;67.70;;;;;;10448730;28;20021;-56
2023/02/02 03:03:37;;;;;;;2.03;0.60;;;14.90;67.60;;;;;;10419603;28;20017;-55
2023/02/02 03:08:56;;;;;;;2.05;0.93;;;14.90;67.60;;;;;;10443688;28;20361;-56
2023/02/02 03:13:57;;;;;;;2.78;0.88;;;14.90;67.60;;;;;;10449590;28;20108;-56
2023/02/02 03:18:57;;;;;;;1.48;0.60;;;14.90;67.60;;;;;;10447554;28;20110;-54
2023/02/02 03:23:59;;;;;;;1.77;0.80;;;14.90;67.60;;;;;;10433812;28;20037;-55
2023/02/02 03:28:59;;;;;;;1.75;0.73;;;14.90;67.60;;;;;;10420698;28;20132;-57
2023/02/02 03:34:00;;;;;;;3.00;1.02;;;14.90;67.60;;;;;;10421137;28;20078;-55
2023/02/02 03:39:01;;;;;;;3.40;1.00;;;14.90;67.60;;;;;;10434422;28;20107;-56
2023/02/02 03:44:01;;;;;;;1.48;0.95;;;14.90;67.60;;;;;;10443091;28;20022;-56
2023/02/02 03:49:02;;;;;;;1.65;0.63;;;14.80;67.60;;;;;;10423901;28;20053;-56
2023/02/02 03:54:03;;;;;;;2.53;1.27;;;14.80;67.50;;;;;;10430375;28;20029;-56
2023/02/02 03:59:04;;;;;;;1.05;0.70;;;14.80;67.60;;;;;;10447551;28;20391;-54
2023/02/02 04:04:05;;;;;;;2.63;0.95;;;14.80;67.60;;;;;;10447657;28;20036;-55
2023/02/02 04:09:05;;;;;;;1.88;1.08;;;14.80;67.60;;;;;;10427956;28;20049;-56
2023/02/02 04:14:06;;;;;;;1.25;0.63;;;14.80;67.60;;;;;;10404717;28;20346;-55
2023/02/02 04:19:07;;;;;;;1.85;0.73;;;14.80;67.60;;;;;;10419149;28;20144;-57
2023/02/02 04:24:12;;;;;;;0.80;0.50;;;14.80;67.60;;;;;;10421658;28;20041;-56
2023/02/02 04:29:13;;;;;;;0.90;0.57;;;14.90;67.40;;;;;;10404252;28;20029;-56
2023/02/02 04:34:14;;;;;;;3.10;0.95;;;15.00;66.70;;;;;;10405543;28;20052;-56
2023/02/02 04:39:14;;;;;;;1.35;0.55;;;15.30;66.00;;;;;;10427246;28;20026;-56
2023/02/02 04:44:15;;;;;;;1.40;0.98;;;15.50;65.30;;;;;;10445038;28;20503;-55
2023/02/02 04:49:16;;;;;;;2.55;0.98;;;15.70;64.70;;;;;;10440541;28;20083;-56
2023/02/02 04:54:17;;;;;;;1.60;0.57;;;15.90;64.00;;;;;;10408849;28;20045;-56
2023/02/02 04:59:17;;;;;;;1.13;0.75;;;16.20;63.40;;;;;;10409370;28;20155;-56
2023/02/02 05:04:18;;;;;;;2.20;0.47;;;16.40;62.80;;;;;;10408005;28;20021;-56
2023/02/02 05:09:19;;;;;;;0.98;0.47;;;16.50;62.40;;;;;;10412764;28;20037;-56
2023/02/02 05:14:20;;;;;;;1.65;0.60;;;16.60;62.20;;;;;;10438109;28;20100;-56
2023/02/02 05:19:20;;;;;;;2.10;0.90;;;16.70;62.00;;;;;;10433660;28;20751;-56
2023/02/02 05:24:21;;;;;;;1.55;0.70;;;16.80;61.90;;;;;;10431925;28;20040;-55
2023/02/02 05:29:21;;;;;;;0.95;0.60;;;16.80;61.80;;;;;;10451297;28;20068;-55
2023/02/02 05:34:22;;;;;;;2.55;0.57;;;16.80;61.80;;;;;;10434466;28;20049;-56
2023/02/02 05:39:23;;;;;;;1.15;0.60;;;16.90;61.80;;;;;;10436782;28;20052;-54
2023/02/02 05:44:24;;;;;;;1.02;0.73;;;16.80;62.10;;;;;;10433357;28;20541;-55
2023/02/02 05:49:24;;;;;;;1.05;0.50;;;16.80;62.30;;;;;;10429649;28;20109;-54
2023/02/02 05:54:25;;;;;;;3.63;0.85;;;16.80;62.50;;;;;;10437546;28;20757;-56
2023/02/02 05:59:28;;;;;;;3.45;0.70;;;16.80;62.90;;;;;;10444008;28;20021;-55
2023/02/02 06:04:28;;;;;;;3.42;1.13;;;16.80;63.80;;;;;;10444996;28;20025;-56
2023/02/02 06:09:29;;;;;;;3.53;0.80;;;16.80;64.40;;;;;;10414789;28;20034;-52
2023/02/02 06:14:30;;;;;;;2.05;0.80;;;16.70;64.40;;;;;;10452824;28;20021;-54
2023/02/02 06:19:31;;;;;;;5.28;1.08;;;16.80;64.60;;;;;;10442864;28;20054;-55
2023/02/02 06:24:32;;;;;;;3.17;0.73;;;16.70;65.40;;;;;;10415721;28;20455;-53
2023/02/02 06:29:33;;;;;;;5.30;0.90;;;16.60;65.80;;;;;;10446219;28;20079;-55
2023/02/02 06:34:34;;;;;;;3.53;0.70;;;16.40;66.40;;;;;;10445686;28;20028;-54
2023/02/02 06:39:35;;;;;;;4.05;0.70;;;16.40;66.40;;;;;;10445357;28;20029;-56
2023/02/02 06:44:35;;;;;;;5.18;1.20;;;16.40;66.20;;;;;;10433466;28;20048;-56
2023/02/02 06:49:36;;;;;;;6.07;1.13;;;16.50;65.90;;;;;;10410721;28;20087;-56
2023/02/02 06:54:37;;;;;;;12.18;1.65;;;16.50;65.90;;;;;;10447017;28;20144;-55
2023/02/02 06:59:39;;;;;;;9.30;1.50;;;16.50;66.00;;;;;;10428204;28;20056;-56
2023/02/02 07:04:40;;;;;;;9.45;1.38;;;16.40;66.30;;;;;;10430921;28;20022;-55
2023/02/02 07:09:41;;;;;;;6.38;1.50;;;16.30;66.40;;;;;;10409964;28;20104;-56
2023/02/02 07:14:41;;;;;;;9.60;1.75;;;16.40;66.20;;;;;;10445281;28;20021;-55
2023/02/02 07:19:42;;;;;;;10.30;1.95;;;16.30;66.20;;;;;;10428741;28;20052;-56
2023/02/02 07:24:43;;;;;;;9.65;1.95;;;16.20;66.30;;;;;;10426147;28;20420;-55
2023/02/02 07:29:44;;;;;;;6.28;1.20;;;16.20;67.30;;;;;;10418289;28;20125;-57
2023/02/02 07:34:45;;;;;;;10.20;1.15;;;16.20;66.30;;;;;;10403485;28;20024;-55
2023/02/02 07:39:45;;;;;;;8.18;1.45;;;16.20;66.00;;;;;;10421023;28;20024;-56
2023/02/02 07:44:46;;;;;;;11.32;2.00;;;16.20;66.10;;;;;;10401675;28;20544;-56
2023/02/02 07:49:47;;;;;;;8.48;1.40;;;16.10;66.00;;;;;;10423483;28;20108;-55
2023/02/02 07:54:47;;;;;;;6.45;1.52;;;16.10;66.10;;;;;;10440430;28;20035;-55
2023/02/02 07:59:49;;;;;;;4.93;1.00;;;16.10;65.80;;;;;;10433332;28;20057;-55
2023/02/02 08:04:49;;;;;;;6.25;0.95;;;16.10;65.70;;;;;;10444921;28;20021;-55
2023/02/02 08:09:50;;;;;;;4.53;1.80;;;16.10;65.80;;;;;;10443709;28;20118;-56
2023/02/02 08:14:51;;;;;;;4.90;1.30;;;16.10;65.60;;;;;;10435707;28;20466;-55
2023/02/02 08:19:52;;;;;;;9.77;3.03;;;16.20;65.40;;;;;;10434365;28;20125;-56
2023/02/02 08:24:53;;;;;;;4.40;1.00;;;16.10;65.50;;;;;;10421878;28;20025;-55
2023/02/02 08:29:53;;;;;;;3.05;0.68;;;16.10;65.60;;;;;;10423915;28;20115;-56
2023/02/02 08:34:54;;;;;;;3.67;1.23;;;16.10;65.30;;;;;;10442808;28;20033;-55
2023/02/02 08:39:54;;;;;;;6.50;1.35;;;16.20;65.30;;;;;;10445509;28;20064;-57
2023/02/02 08:44:55;;;;;;;5.13;1.20;;;16.10;65.40;;;;;;10437306;28;20535;-56
2023/02/02 08:49:56;;;;;;;4.10;1.45;;;16.00;65.50;;;;;;10435071;28;20080;-56
2023/02/02 08:54:56;;;;;;;4.53;1.17;;;16.10;65.20;;;;;;10421859;28;20106;-56
2023/02/02 08:59:57;;;;;;;3.47;0.90;;;16.20;65.00;;;;;;10403636;28;20109;-57
2023/02/02 09:04:58;;;;;;;3.05;0.90;;;16.20;64.80;;;;;;10403488;28;20535;-56
2023/02/02 09:09:59;;;;;;;3.63;1.08;;;16.20;64.90;;;;;;10421060;28;20096;-57
2023/02/02 09:15:00;;;;;;;4.93;0.73;;;16.10;65.00;;;;;;10444714;28;20010;-56
2023/02/02 09:20:00;;;;;;;3.67;0.80;;;16.00;65.20;;;;;;10445169;28;20074;-56
2023/02/02 09:25:01;;;;;;;4.13;0.68;;;16.00;65.40;;;;;;10460758;28;20051;-56
2023/02/02 09:30:02;;;;;;;4.68;0.63;;;15.90;66.10;;;;;;10434182;28;20041;-55
2023/02/02 09:35:03;;;;;;;2.53;0.80;;;16.00;65.40;;;;;;10410595;28;20060;-56
2023/02/02 09:40:04;;;;;;;5.30;1.00;;;16.00;65.20;;;;;;10405178;28;20699;-55
2023/02/02 09:45:12;;;;;;;1.42;0.70;;;16.00;65.20;;;;;;10407800;28;20423;-55
2023/02/02 09:50:21;;;;;;;2.25;0.70;;;16.00;65.10;;;;;;10423981;28;20037;-56
2023/02/02 09:55:53;;;;;;;3.10;1.23;;;16.00;64.90;;;;;;10415238;28;20370;-56
2023/02/02 10:01:25;;;;;;;1.90;1.00;;;16.00;65.10;;;;;;10422809;28;20025;-56
2023/02/02 10:06:47;;;;;;;3.67;1.13;;;16.00;65.00;;;;;;10450990;28;20719;-56
2023/02/02 10:12:05;;;;;;;2.17;0.63;;;16.10;64.90;;;;;;10450668;28;20096;-55
2023/02/02 10:17:47;;;;;;;2.92;0.68;;;16.00;64.90;;;;;;10444563;28;20051;-57
2023/02/02 10:22:48;;;;;;;1.55;0.75;;;16.00;64.90;;;;;;10401999;28;20500;-56
2023/02/02 10:28:17;;;;;;;2.72;0.68;;;16.10;64.70;;;;;;10408411;28;20384;-55
2023/02/02 10:33:37;;;;;;;1.83;0.57;;;16.00;64.80;;;;;;10409762;28;20018;-56
2023/02/02 10:38:57;;;;;;;2.90;0.75;;;16.10;64.70;;;;;;10408793;28;20049;-56
2023/02/02 10:44:11;;;;;;;1.85;0.60;;;16.10;64.60;;;;;;10431451;28;20025;-56
2023/02/02 10:49:35;;;;;;;2.47;0.80;;;16.10;64.70;;;;;;10409553;28;20485;-55
2023/02/02 10:55:13;;;;;;;1.05;0.50;;;16.10;64.60;;;;;;10445243;28;20737;-56
2023/02/02 11:00:21;;;;;;;1.38;0.45;;;16.20;65.20;;;;;;10450080;28;20025;-56
2023/02/02 11:10:52;;;;;;;2.60;0.77;;;16.00;65.30;;;;;;10433559;28;20640;-57
2023/02/02 11:16:15;;;;;;;3.30;0.90;;;15.90;65.00;;;;;;10420150;28;20049;-57
2023/02/02 11:21:28;;;;;;;6.22;1.00;;;16.00;64.90;;;;;;10451446;28;20041;-58
2023/02/02 11:26:56;;;;;;;2.22;0.80;;;16.00;64.60;;;;;;10425038;28;20034;-56
2023/02/02 11:31:57;;;;;;;2.42;0.73;;;16.00;64.70;;;;;;10429653;28;20388;-56
2023/02/02 11:37:09;;;;;;;3.63;0.52;;;15.90;64.70;;;;;;10432529;28;20029;-56
2023/02/02 11:42:15;;;;;;;2.80;0.93;;;16.00;64.50;;;;;;10444764;28;20048;-56
2023/02/02 11:47:26;;;;;;;2.67;0.60;;;16.10;64.20;;;;;;10442469;28;20036;-58
2023/02/02 11:52:29;;;;;;;1.92;0.73;;;16.10;64.10;;;;;;10429668;28;20022;-56
2023/02/02 11:57:30;;;;;;;1.95;1.05;;;16.10;64.10;;;;;;10406960;28;20584;-56
2023/02/02 12:02:32;;;;;;;2.30;0.52;;;16.00;64.20;;;;;;10413012;28;20017;-57
2023/02/02 12:07:34;;;;;;;1.98;0.82;;;16.00;64.20;;;;;;10424486;28;20038;-57
2023/02/02 12:13:14;;;;;;;1.98;0.60;;;16.10;64.00;;;;;;10431551;28;20100;-56
2023/02/02 12:18:56;;;;;;;3.05;0.80;;;16.10;64.10;;;;;;10419867;28;20045;-56
2023/02/02 12:24:49;;;;;;;1.77;0.60;;;16.10;64.10;;;;;;10402962;28;20639;-56
2023/02/02 12:30:07;;;;;;;1.83;1.02;;;16.10;63.80;;;;;;10404095;28;20042;-57
2023/02/02 12:35:26;;;;;;;2.72;0.68;;;16.00;64.10;;;;;;10403894;28;20018;-57
2023/02/02 12:41:20;;;;;;;6.25;2.80;;;16.10;64.00;;;;;;10405076;28;20038;-57
2023/02/02 12:47:13;;;;;;;2.45;0.65;;;16.10;63.90;;;;;;10398758;28;20136;-57
2023/02/02 12:52:36;;;;;;;1.63;0.85;;;16.10;64.00;;;;;;10429128;28;20037;-55
2023/02/02 12:58:25;;;;;;;2.90;0.88;;;16.00;63.80;;;;;;10426374;28;20100;-56
2023/02/02 13:03:59;;;;;;;3.05;0.80;;;16.20;63.50;;;;;;10431903;28;20103;-54
2023/02/02 13:09:16;;;;;;;3.15;1.20;;;16.20;64.00;;;;;;10425267;28;20377;-55
2023/02/02 13:14:28;;;;;;;1.55;0.70;;;16.20;63.70;;;;;;10435615;28;20435;-54
2023/02/02 13:19:48;;;;;;;2.78;0.90;;;16.10;64.00;;;;;;10446392;28;20060;-56
2023/02/02 13:24:52;;;;;;;2.35;0.85;;;16.10;64.20;;;;;;10450331;28;20029;-57
2023/02/02 13:30:29;;;;;;;3.03;0.98;;;16.10;64.10;;;;;;10450082;28;20101;-56
2023/02/02 13:35:53;;;;;;;2.92;1.45;;;16.10;64.10;;;;;;10449647;28;20040;-56
2023/02/02 13:40:58;;;;;;;2.58;0.95;;;16.00;64.30;;;;;;10449865;28;20617;-55
2023/02/02 13:46:08;;;;;;;4.30;1.08;;;16.10;64.10;;;;;;10450644;28;20111;-56
2023/02/02 13:51:41;;;;;;;4.18;0.73;;;16.10;64.40;;;;;;10453671;28;20041;-55
2023/02/02 13:57:10;;;;;;;3.58;0.85;;;16.10;64.70;;;;;;10413403;28;20040;-54
2023/02/02 14:02:27;;;;;;;4.28;0.95;;;16.20;64.30;;;;;;10412180;28;20060;-56
2023/02/02 14:07:44;;;;;;;3.30;0.65;;;16.20;64.10;;;;;;10437268;28;20654;-56
2023/02/02 14:12:44;;;;;;;3.03;0.88;;;16.10;64.20;;;;;;10443512;28;20028;-55
2023/02/02 14:17:46;;;;;;;1.95;0.68;;;16.10;64.40;;;;;;10438170;28;20047;-56
2023/02/02 14:22:49;;;;;;;2.25;0.60;;;16.00;64.60;;;;;;10435376;28;20036;-54
2023/02/02 14:27:57;;;;;;;2.47;0.63;;;16.10;64.30;;;;;;10419065;28;20083;-56
2023/02/02 14:33:21;;;;;;;1.70;0.80;;;16.10;64.30;;;;;;10407404;28;20509;-54
2023/02/02 14:39:02;;;;;;;1.60;0.63;;;16.00;64.40;;;;;;10408854;28;20171;-56
2023/02/02 14:44:05;;;;;;;1.27;0.60;;;16.10;64.30;;;;;;10419562;28;20017;-55
2023/02/02 14:49:12;;;;;;;3.00;0.75;;;16.10;64.20;;;;;;10424948;28;20033;-56
2023/02/02 14:54:30;;;;;;;1.95;0.60;;;16.10;64.30;;;;;;10452539;28;20017;-55
2023/02/02 14:59:39;;;;;;;2.10;0.60;;;16.10;64.20;;;;;;10412360;28;20397;-56
2023/02/02 15:04:40;;;;;;;2.23;0.60;;;16.10;64.10;;;;;;10430470;28;20025;-57
2023/02/02 15:09:42;;;;;;;1.85;0.75;;;16.10;64.30;;;;;;10419545;28;20033;-56
2023/02/02 15:15:09;;;;;;;1.10;0.60;;;16.10;64.90;;;;;;10409497;28;20017;-57
2023/02/02 15:20:38;;;;;;;1.25;0.50;;;16.10;64.00;;;;;;10425216;28;20060;-57
2023/02/02 15:25:52;;;;;;;1.40;0.40;;;16.10;64.20;;;;;;10407541;28;20025;-56
2023/02/02 15:31:21;;;;;;;1.27;0.60;;;16.10;64.10;;;;;;10426962;28;20137;-56
2023/02/02 15:36:26;;;;;;;1.80;0.57;;;16.20;64.10;;;;;;10408187;28;20033;-57
2023/02/02 15:41:42;;;;;;;6.05;1.38;;;16.10;64.10;;;;;;10405478;28;20025;-56
2023/02/02 15:46:43;;;;;;;1.35;0.60;;;16.10;64.10;;;;;;10407479;28;20068;-55
2023/02/02 15:51:53;;;;;;;2.05;0.82;;;16.10;64.10;;;;;;10431358;28;20024;-56
2023/02/02 15:56:56;;;;;;;1.95;0.60;;;16.10;64.10;;;;;;10423528;28;20071;-57
2023/02/02 16:02:06;;;;;;;1.85;0.93;;;16.10;64.10;;;;;;10394167;28;20032;-56
2023/02/02 16:07:33;;;;;;;1.63;0.50;;;16.20;63.90;;;;;;10459290;28;20116;-58
2023/02/02 16:12:34;;;;;;;1.27;0.50;;;16.10;64.00;;;;;;10445346;28;20496;-57
2023/02/02 16:17:34;;;;;;;4.05;0.80;;;16.10;64.00;;;;;;10416584;28;20040;-56
2023/02/02 16:22:37;;;;;;;0.95;0.50;;;16.20;63.70;;;;;;10440736;28;20384;-57
2023/02/02 16:27:43;;;;;;;2.30;0.60;;;16.20;63.70;;;;;;10407054;28;20033;-55
2023/02/02 16:32:44;;;;;;;1.30;0.40;;;16.10;63.90;;;;;;10428177;28;20036;-57
2023/02/02 16:37:45;;;;;;;3.10;1.40;;;16.00;64.20;;;;;;10427071;28;20097;-57
2023/02/02 16:42:45;;;;;;;2.28;0.60;;;16.00;64.40;;;;;;10404273;28;20026;-56
2023/02/02 16:47:46;;;;;;;1.30;0.50;;;16.00;64.30;;;;;;10419053;28;20537;-58
2023/02/02 16:53:03;;;;;;;5.50;0.80;;;16.10;64.10;;;;;;10434747;28;20438;-53
2023/02/02 16:58:04;;;;;;;8.10;1.50;;;16.10;64.30;;;;;;10451786;28;20074;-57
2023/02/02 17:03:09;;;;;;;6.13;0.93;;;16.20;63.70;;;;;;10449477;28;20078;-58
2023/02/02 17:08:09;;;;;;;8.27;1.10;;;16.40;63.00;;;;;;10456355;28;20041;-57
2023/02/02 17:13:29;;;;;;;3.67;1.10;;;16.60;62.70;;;;;;10451236;28;20025;-58
2023/02/02 17:18:30;;;;;;;6.03;1.25;;;16.80;62.50;;;;;;10456094;28;20715;-54
2023/02/02 17:23:31;;;;;;;5.80;1.10;;;17.10;63.90;;;;;;10437122;28;20139;-55
2023/02/02 17:28:33;;;;;;;4.90;1.58;;;17.20;64.30;;;;;;10453546;28;20033;-56
2023/02/02 17:33:34;;;;;;;7.35;1.10;;;17.30;64.20;;;;;;10431634;28;20109;-54
2023/02/02 17:38:36;;;;;;;8.68;1.10;;;17.40;64.70;;;;;;10446073;28;20029;-54
2023/02/02 17:43:37;;;;;;;5.35;1.15;;;17.40;63.60;;;;;;10459973;28;20023;-58
2023/02/02 17:48:37;;;;;;;11.85;1.83;;;17.40;63.90;;;;;;10450501;28;20037;-56
2023/02/02 17:53:38;;;;;;;7.35;2.20;;;17.50;63.60;;;;;;10416566;28;20026;-55
2023/02/02 17:58:39;;;;;;;48.45;17.75;;;17.50;63.90;;;;;;10418125;28;20431;-56
2023/02/02 18:03:44;;;;;;;11.10;3.58;;;17.50;64.30;;;;;;10415287;28;20041;-55
2023/02/02 18:08:45;;;;;;;21.05;6.25;;;17.50;64.10;;;;;;10456367;28;20070;-56
2023/02/02 18:13:46;;;;;;;12.60;3.60;;;17.60;63.50;;;;;;10450861;28;20013;-56
2023/02/02 18:18:47;;;;;;;13.07;4.47;;;17.50;63.50;;;;;;10422008;28;20415;-55
2023/02/02 18:23:48;;;;;;;17.40;4.68;;;17.60;63.30;;;;;;10430939;28;20049;-55
2023/02/02 18:28:49;;;;;;;11.82;4.82;;;17.60;63.40;;;;;;10425541;28;20029;-55
2023/02/02 18:33:50;;;;;;;12.23;4.97;;;17.50;63.40;;;;;;10428603;28;20013;-55
2023/02/02 18:38:52;;;;;;;12.18;3.53;;;17.50;63.50;;;;;;10427851;28;20026;-54
2023/02/02 18:43:54;;;;;;;10.60;4.32;;;17.40;63.60;;;;;;10431075;28;20021;-54
2023/02/02 18:48:55;;;;;;;11.75;4.25;;;17.50;63.40;;;;;;10425497;28;20056;-55
2023/02/02 18:53:59;;;;;;;9.23;3.67;;;17.60;63.00;;;;;;10437576;28;20025;-54
2023/02/02 18:58:59;;;;;;;8.85;3.95;;;17.60;62.90;;;;;;10445543;28;20024;-56
2023/02/02 19:04:00;;;;;;;13.00;3.53;;;17.70;62.80;;;;;;10433295;28;20021;-55
2023/02/02 19:09:02;;;;;;;10.15;3.95;;;17.80;62.80;;;;;;10434019;28;20178;-53
2023/02/02 19:14:11;;;;;;;9.35;4.00;;;17.80;62.80;;;;;;10429268;28;20036;-55
2023/02/02 19:19:20;;;;;;;7.50;2.55;;;17.80;62.80;;;;;;10424671;28;20106;-55
2023/02/02 19:24:22;;;;;;;7.43;2.83;;;17.90;62.70;;;;;;10449669;28;20056;-54
2023/02/02 19:29:29;;;;;;;6.93;2.88;;;17.90;62.80;;;;;;10430110;28;20071;-56
2023/02/02 19:34:32;;;;;;;7.72;2.60;;;17.90;62.80;;;;;;10425511;28;20099;-55
2023/02/02 19:39:34;;;;;;;9.70;2.83;;;17.90;62.80;;;;;;10447009;28;20664;-55
2023/02/02 19:44:34;;;;;;;9.93;3.38;;;17.90;63.00;;;;;;10434174;28;20021;-54
2023/02/02 19:49:35;;;;;;;7.15;2.80;;;17.80;63.00;;;;;;10415195;28;20041;-55
2023/02/02 19:54:43;;;;;;;9.27;2.70;;;17.80;62.90;;;;;;10422641;28;20074;-55
2023/02/02 19:59:48;;;;;;;6.65;2.70;;;17.90;62.60;;;;;;10420716;28;20025;-55
2023/02/02 20:05:04;;;;;;;9.75;2.00;;;17.90;62.70;;;;;;10424538;28;20086;-55
2023/02/02 20:10:29;;;;;;;6.07;2.53;;;17.90;62.60;;;;;;10426541;28;20031;-55
2023/02/02 20:15:33;;;;;;;7.88;2.35;;;17.80;62.70;;;;;;10426900;28;20681;-54
2023/02/02 20:20:40;;;;;;;3.85;1.83;;;17.60;63.10;;;;;;10429152;28;20048;-57
2023/02/02 20:25:43;;;;;;;6.20;2.10;;;17.50;63.70;;;;;;10424705;28;20018;-55
2023/02/02 20:30:43;;;;;;;5.10;1.85;;;17.20;64.20;;;;;;10403122;28;20040;-55
2023/02/02 20:35:44;;;;;;;4.95;2.38;;;17.10;64.60;;;;;;10404658;28;20089;-55
2023/02/02 20:40:45;;;;;;;3.45;1.48;;;17.00;65.00;;;;;;10405511;28;20032;-54
2023/02/02 20:45:46;;;;;;;6.38;2.13;;;16.80;65.30;;;;;;10404680;28;20124;-56
2023/02/02 20:50:47;;;;;;;5.18;1.75;;;16.80;65.60;;;;;;10406703;28;20132;-55
2023/02/02 20:55:47;;;;;;;4.03;1.30;;;16.60;65.80;;;;;;10416565;28;20029;-56
2023/02/02 21:00:48;;;;;;;6.43;2.30;;;16.60;66.00;;;;;;10437191;28;20017;-55
2023/02/02 21:05:49;;;;;;;4.28;2.35;;;16.50;66.10;;;;;;10416025;28;20029;-54
2023/02/02 21:10:49;;;;;;;3.72;1.50;;;16.40;66.30;;;;;;10435027;28;20030;-55
2023/02/02 21:15:50;;;;;;;4.45;1.50;;;16.30;66.40;;;;;;10442395;28;20017;-55
2023/02/02 21:20:51;;;;;;;4.75;1.50;;;16.30;66.60;;;;;;10431861;28;20091;-55
2023/02/02 21:25:51;;;;;;;5.13;1.85;;;16.20;66.70;;;;;;10407190;28;20692;-55
2023/02/02 21:30:52;;;;;;;4.53;1.40;;;16.10;66.80;;;;;;10428235;28;20129;-55
2023/02/02 21:35:56;;;;;;;4.45;1.50;;;16.10;66.90;;;;;;10420553;28;20085;-56
2023/02/02 21:41:11;;;;;;;4.63;1.20;;;16.00;66.90;;;;;;10430445;28;20116;-56
2023/02/02 21:46:21;;;;;;;2.78;1.42;;;16.00;67.00;;;;;;10432436;28;20025;-55
2023/02/02 21:51:32;;;;;;;3.03;1.45;;;15.90;67.00;;;;;;10415498;28;20029;-54
2023/02/02 21:56:37;;;;;;;4.20;1.48;;;15.90;67.10;;;;;;10411811;28;20105;-54
2023/02/02 22:01:39;;;;;;;4.45;1.95;;;15.80;67.10;;;;;;10423590;28;20032;-55
2023/02/02 22:06:45;;;;;;;3.33;1.50;;;15.80;67.20;;;;;;10422921;28;20037;-57
2023/02/02 22:12:00;;;;;;;2.55;1.08;;;15.80;67.30;;;;;;10409860;28;20057;-55
2023/02/02 22:17:01;;;;;;;4.93;1.33;;;15.80;67.40;;;;;;10413350;28;20091;-54
2023/02/02 22:22:16;;;;;;;4.45;1.40;;;15.70;67.30;;;;;;10440304;28;20033;-56
2023/02/02 22:27:23;;;;;;;3.67;1.13;;;15.70;67.50;;;;;;10434856;28;20032;-55
2023/02/02 22:32:24;;;;;;;4.95;1.50;;;15.70;67.50;;;;;;10408920;28;20028;-55
2023/02/02 22:37:25;;;;;;;5.30;1.10;;;15.60;67.50;;;;;;10439764;28;20112;-55
2023/02/02 22:42:25;;;;;;;4.93;1.30;;;15.60;67.60;;;;;;10418508;28;20053;-54
2023/02/02 22:47:26;;;;;;;3.20;1.13;;;15.60;67.60;;;;;;10426159;28;20061;-55
2023/02/02 22:52:27;;;;;;;3.40;1.45;;;15.60;67.60;;;;;;10418043;28;20595;-55
2023/02/02 22:57:27;;;;;;;5.18;1.42;;;15.50;67.60;;;;;;10430065;28;20140;-58
2023/02/02 23:02:28;;;;;;;2.50;0.98;;;15.50;67.70;;;;;;10441482;28;20503;-55
2023/02/02 23:07:28;;;;;;;4.47;1.33;;;15.50;67.80;;;;;;10434788;28;20803;-55
2023/02/02 23:12:29;;;;;;;2.67;1.25;;;15.40;67.70;;;;;;10435687;28;20024;-58
2023/02/02 23:17:30;;;;;;;3.47;1.52;;;15.40;67.80;;;;;;10421032;28;20049;-55
2023/02/02 23:22:31;;;;;;;2.22;0.93;;;15.40;67.80;;;;;;10435337;28;20121;-53
2023/02/02 23:27:32;;;;;;;4.63;1.33;;;15.40;67.80;;;;;;10432398;28;20112;-56
2023/02/02 23:32:33;;;;;;;1.98;0.80;;;15.40;67.80;;;;;;10411236;28;20075;-55
2023/02/02 23:37:34;;;;;;;3.75;1.13;;;15.30;67.80;;;;;;10416756;28;20026;-56
2023/02/02 23:42:34;;;;;;;2.80;0.82;;;15.30;67.80;;;;;;10407490;28;20063;-56
2023/02/02 23:47:35;;;;;;;3.15;1.10;;;15.30;67.80;;;;;;10407724;28;20044;-55
2023/02/02 23:52:37;;;;;;;3.40;1.42;;;15.30;67.90;;;;;;10424207;28;20052;-56
2023/02/02 23:57:38;;;;;;;2.17;1.50;;;15.30;67.90;;;;;;10424329;28;20025;-55
